createdAt,value
2019-01-21T00:00:36.394Z,-2.86
2019-01-21T00:04:43.963Z,-2.97
2019-01-21T00:08:51.021Z,-3.05
2019-01-21T00:12:58.258Z,-3.00
2019-01-21T00:17:05.535Z,-3.04
2019-01-21T00:21:12.921Z,-3.02
2019-01-21T00:25:20.032Z,-2.98
2019-01-21T00:29:27.375Z,-2.89
2019-01-21T00:33:34.453Z,-3.12
2019-01-21T00:37:41.670Z,-3.10
2019-01-21T00:41:48.662Z,-3.07
2019-01-21T00:45:55.753Z,-3.11
2019-01-21T00:50:02.744Z,-3.16
2019-01-21T00:54:11.058Z,-3.16
2019-01-21T00:58:18.134Z,-3.23
2019-01-21T01:02:25.176Z,-3.19
2019-01-21T01:06:32.131Z,-3.27
2019-01-21T01:10:39.423Z,-3.25
2019-01-21T01:14:46.927Z,-3.27
2019-01-21T01:18:54.019Z,-3.32
2019-01-21T01:23:01.177Z,-3.41
2019-01-21T01:27:10.520Z,-3.39
2019-01-21T01:31:17.643Z,-3.44
2019-01-21T01:35:24.786Z,-3.49
2019-01-21T01:39:31.882Z,-3.42
2019-01-21T01:43:38.855Z,-3.45
2019-01-21T01:47:45.921Z,-3.49
2019-01-21T01:51:55.788Z,-3.64
2019-01-21T01:56:05.059Z,-3.51
2019-01-21T02:00:15.474Z,-3.64
2019-01-21T02:04:22.508Z,-3.70
2019-01-21T02:08:32.598Z,-3.71
2019-01-21T02:12:41.447Z,-3.76
2019-01-21T02:16:48.558Z,-3.68
2019-01-21T02:20:58.771Z,-3.68
2019-01-21T02:25:07.809Z,-3.75
2019-01-21T02:29:58.084Z,-3.85
2019-01-21T02:34:55.541Z,-3.85
2019-01-21T02:39:57.595Z,-3.89
2019-01-21T02:45:04.156Z,-3.89
2019-01-21T02:50:08.716Z,-3.89
2019-01-21T02:54:54.908Z,-3.98
2019-01-21T02:59:33.515Z,-4.03
2019-01-21T03:04:24.850Z,-4.04
2019-01-21T03:09:17.201Z,-4.06
2019-01-21T03:14:29.246Z,-4.22
2019-01-21T03:19:57.255Z,-4.13
2019-01-21T03:25:18.973Z,-4.22
2019-01-21T03:30:07.566Z,-4.25
2019-01-21T03:34:59.277Z,-4.32
2019-01-21T03:40:07.842Z,-4.24
2019-01-21T03:45:29.416Z,-4.41
2019-01-21T03:50:18.836Z,-4.25
2019-01-21T03:54:55.628Z,-4.43
2019-01-21T04:00:06.169Z,-4.36
2019-01-21T04:05:06.211Z,-4.45
2019-01-21T04:10:18.380Z,-4.50
2019-01-21T04:15:22.763Z,-4.59
2019-01-21T04:20:26.537Z,-4.73
2019-01-21T04:25:31.225Z,-4.80
2019-01-21T04:30:32.729Z,-4.79
2019-01-21T04:36:06.805Z,-4.82
2019-01-21T04:40:59.104Z,-4.76
2019-01-21T04:45:54.517Z,-4.79
2019-01-21T04:51:34.739Z,-4.78
2019-01-21T04:56:11.753Z,-4.77
2019-01-21T05:01:04.496Z,-4.93
2019-01-21T05:06:21.214Z,-4.93
2019-01-21T05:11:24.494Z,-4.89
2019-01-21T05:16:14.744Z,-4.95
2019-01-21T05:21:26.658Z,-5.00
2019-01-21T05:26:16.455Z,-4.94
2019-01-21T05:31:17.251Z,-4.94
2019-01-21T05:36:24.578Z,-5.01
2019-01-21T05:41:42.340Z,-5.02
2019-01-21T05:46:46.590Z,-4.97
2019-01-21T05:52:10.613Z,-4.97
2019-01-21T05:57:47.508Z,-4.97
2019-01-21T06:03:21.590Z,-5.07
2019-01-21T06:08:20.092Z,-5.00
2019-01-21T06:13:18.541Z,-5.12
2019-01-21T06:18:32.668Z,-5.19
2019-01-21T06:23:42.196Z,-5.12
2019-01-21T06:28:59.867Z,-5.07
2019-01-21T06:33:51.368Z,-5.09
2019-01-21T06:38:46.897Z,-5.07
2019-01-21T06:44:18.888Z,-5.11
2019-01-21T06:49:20.185Z,-5.08
2019-01-21T06:54:11.115Z,-5.10
2019-01-21T06:59:08.486Z,-5.06
2019-01-21T07:04:08.423Z,-4.95
2019-01-21T07:09:23.152Z,-4.99
2019-01-21T07:14:26.771Z,-4.96
2019-01-21T07:19:15.969Z,-4.82
2019-01-21T07:24:40.946Z,-4.89
2019-01-21T07:29:52.687Z,-4.76
2019-01-21T07:34:58.200Z,-4.79
2019-01-21T07:39:52.272Z,-4.91
2019-01-21T07:44:47.121Z,-4.87
2019-01-21T07:50:04.870Z,-4.91
2019-01-21T07:55:09.605Z,-4.97
2019-01-21T08:00:19.278Z,-4.95
2019-01-21T08:05:27.226Z,-4.93
2019-01-21T08:10:33.654Z,-4.78
2019-01-21T08:15:43.944Z,-4.57
2019-01-21T08:20:31.514Z,-4.49
2019-01-21T08:25:37.257Z,-4.51
2019-01-21T08:30:15.616Z,-4.34
2019-01-21T08:35:08.251Z,-3.89
2019-01-21T08:40:16.862Z,-3.80
2019-01-21T08:45:34.860Z,-3.74
2019-01-21T08:50:30.458Z,-3.70
2019-01-21T08:55:40.002Z,-3.57
2019-01-21T09:00:51.922Z,-3.16
2019-01-21T09:06:05.200Z,-3.03
2019-01-21T09:11:06.461Z,-2.69
2019-01-21T09:16:21.102Z,-2.18
2019-01-21T09:21:00.281Z,-2.42
2019-01-21T09:25:55.875Z,-2.01
2019-01-21T09:30:27.563Z,-2.43
2019-01-21T09:35:15.813Z,-2.12
2019-01-21T09:40:05.311Z,-2.30
2019-01-21T09:44:29.261Z,-2.02
2019-01-21T09:48:33.660Z,-0.87
2019-01-21T09:52:41.529Z,-0.84
2019-01-21T09:56:50.613Z,-1.41
2019-01-21T10:00:59.316Z,-1.40
2019-01-21T10:05:14.663Z,-1.55
2019-01-21T10:10:02.783Z,-1.15
2019-01-21T10:15:08.213Z,-0.84
2019-01-21T10:19:56.716Z,-1.00
2019-01-21T10:25:20.562Z,-0.31
2019-01-21T10:30:20.525Z,-0.29
2019-01-21T10:35:11.424Z,-0.12
2019-01-21T10:40:19.440Z,-0.05
2019-01-21T10:45:27.992Z,0.66
2019-01-21T10:50:25.283Z,0.87
2019-01-21T10:55:48.355Z,0.83
2019-01-21T11:01:14.403Z,1.01
2019-01-21T11:06:07.068Z,1.26
2019-01-21T11:10:50.300Z,1.40
2019-01-21T11:15:44.520Z,1.50
2019-01-21T11:20:32.295Z,1.20
2019-01-21T11:25:41.450Z,0.92
2019-01-21T11:30:52.290Z,1.04
2019-01-21T11:35:45.027Z,1.06
2019-01-21T11:41:17.716Z,1.11
2019-01-21T11:46:08.042Z,1.16
2019-01-21T11:50:52.719Z,2.02
2019-01-21T11:56:05.790Z,1.47
2019-01-21T12:00:40.593Z,2.18
2019-01-21T12:05:36.757Z,1.71
2019-01-21T12:10:46.378Z,1.87
2019-01-21T12:15:29.049Z,2.13
2019-01-21T12:20:17.058Z,2.25
2019-01-21T12:24:46.712Z,2.71
2019-01-21T12:29:34.923Z,2.95
2019-01-21T12:34:27.142Z,2.88
2019-01-21T12:39:11.998Z,3.86
2019-01-21T12:44:09.552Z,2.79
2019-01-21T12:49:22.644Z,3.15
2019-01-21T12:54:19.726Z,3.54
2019-01-21T12:59:07.207Z,4.10
2019-01-21T13:04:04.275Z,4.26
2019-01-21T13:08:51.437Z,4.34
2019-01-21T13:14:11.893Z,3.56
2019-01-21T13:19:06.983Z,3.59
2019-01-21T13:23:56.331Z,3.79
2019-01-21T13:29:00.872Z,3.26
2019-01-21T13:33:48.692Z,2.89
2019-01-21T13:39:01.052Z,2.54
2019-01-21T13:43:43.667Z,1.64
2019-01-21T13:48:22.267Z,1.25
2019-01-21T13:53:24.039Z,1.68
2019-01-21T13:58:26.573Z,1.26
2019-01-21T14:03:14.375Z,1.53
2019-01-21T14:08:23.772Z,1.71
2019-01-21T14:13:26.286Z,1.11
2019-01-21T14:18:11.125Z,1.14
2019-01-21T14:22:55.123Z,1.10
2019-01-21T14:28:14.854Z,0.60
2019-01-21T14:33:19.689Z,0.58
2019-01-21T14:37:53.894Z,0.55
2019-01-21T14:43:01.129Z,0.65
2019-01-21T14:47:59.412Z,0.54
2019-01-21T14:53:22.335Z,0.38
2019-01-21T14:58:30.940Z,0.44
2019-01-21T15:03:22.982Z,0.38
2019-01-21T15:07:57.280Z,0.43
2019-01-21T15:13:07.779Z,0.35
2019-01-21T15:17:50.021Z,0.34
2019-01-21T15:23:07.277Z,0.26
2019-01-21T15:28:09.050Z,0.27
2019-01-21T15:32:58.532Z,0.17
2019-01-21T15:38:17.968Z,0.16
2019-01-21T15:43:27.023Z,0.01
2019-01-21T15:48:28.343Z,-0.03
2019-01-21T15:53:22.527Z,-0.07
2019-01-21T15:58:23.106Z,-0.11
2019-01-21T16:03:27.392Z,-0.14
2019-01-21T16:08:14.004Z,-0.18
2019-01-21T16:13:31.322Z,-0.28
2019-01-21T16:18:08.574Z,-0.34
2019-01-21T16:23:17.239Z,-0.48
2019-01-21T16:28:18.025Z,-0.48
2019-01-21T16:33:19.791Z,-0.54
2019-01-21T16:38:20.596Z,-0.64
2019-01-21T16:42:25.584Z,-0.63
2019-01-21T16:46:44.174Z,-0.69
2019-01-21T16:50:56.962Z,-0.73
2019-01-21T16:55:09.788Z,-0.79
2019-01-21T16:59:17.103Z,-0.84
2019-01-21T17:03:27.173Z,-0.86
2019-01-21T17:07:35.944Z,-0.87
2019-01-21T17:11:43.187Z,-0.89
2019-01-21T17:15:50.620Z,-0.99
2019-01-21T17:19:59.081Z,-0.98
2019-01-21T17:24:10.362Z,-1.09
2019-01-21T17:28:17.498Z,-1.12
2019-01-21T17:32:26.189Z,-1.17
2019-01-21T17:36:33.284Z,-1.19
2019-01-21T17:40:40.836Z,-1.13
2019-01-21T17:44:47.879Z,-0.87
2019-01-21T17:48:57.227Z,-1.07
2019-01-21T17:53:04.406Z,-1.14
2019-01-21T17:57:12.089Z,-1.07
2019-01-21T18:01:20.301Z,-0.72
2019-01-21T18:05:29.986Z,-1.02
2019-01-21T18:09:38.421Z,-1.13
2019-01-21T18:13:45.705Z,-1.18
2019-01-21T18:17:52.922Z,-1.21
2019-01-21T18:22:01.237Z,-1.24
2019-01-21T18:26:09.770Z,-1.29
2019-01-21T18:30:24.323Z,-1.34
2019-01-21T18:34:31.958Z,-1.39
2019-01-21T18:38:39.090Z,-0.78
2019-01-21T18:42:46.983Z,-0.91
2019-01-21T18:46:54.195Z,-1.12
2019-01-21T18:51:03.306Z,-1.15
2019-01-21T18:55:11.165Z,-1.24
2019-01-21T18:59:18.215Z,-1.46
2019-01-21T19:03:29.444Z,-1.46
2019-01-21T19:07:36.709Z,-1.48
2019-01-21T19:11:43.936Z,-1.55
2019-01-21T19:15:54.110Z,-1.64
2019-01-21T19:20:01.214Z,-1.62
2019-01-21T19:24:08.610Z,-1.72
2019-01-21T19:28:15.865Z,-1.84
2019-01-21T19:32:22.875Z,-1.86
2019-01-21T19:36:30.011Z,-1.95
2019-01-21T19:40:37.386Z,-2.01
2019-01-21T19:44:44.635Z,-1.76
2019-01-21T19:48:51.861Z,-1.94
2019-01-21T19:52:59.066Z,-1.92
2019-01-21T19:57:06.409Z,-1.97
2019-01-21T20:01:14.131Z,-1.95
2019-01-21T20:05:21.537Z,-2.02
2019-01-21T20:09:29.617Z,-2.00
2019-01-21T20:13:36.694Z,-2.07
2019-01-21T20:17:43.732Z,-2.00
2019-01-21T20:21:51.793Z,-2.25
2019-01-21T20:25:59.295Z,-2.16
2019-01-21T20:30:08.797Z,-2.20
2019-01-21T20:34:15.701Z,-2.19
2019-01-21T20:38:24.307Z,-2.25
2019-01-21T20:42:31.367Z,-2.29
2019-01-21T20:46:38.569Z,-2.17
2019-01-21T20:50:45.946Z,-2.20
2019-01-21T20:54:53.401Z,-2.21
2019-01-21T20:59:01.304Z,-2.21
2019-01-21T21:03:08.811Z,-2.13
2019-01-21T21:07:16.201Z,-2.23
2019-01-21T21:11:23.914Z,-2.37
2019-01-21T21:15:33.951Z,-2.40
2019-01-21T21:19:41.242Z,-2.41
2019-01-21T21:23:48.452Z,-2.46
2019-01-21T21:27:55.359Z,-2.44
2019-01-21T21:32:02.607Z,-2.49
2019-01-21T21:36:09.754Z,-2.58
2019-01-21T21:40:20.494Z,-2.67
2019-01-21T21:44:30.384Z,-2.72
2019-01-21T21:48:37.479Z,-2.20
2019-01-21T21:52:52.855Z,-2.67
2019-01-21T21:57:04.621Z,-2.83
2019-01-21T22:01:12.010Z,-2.91
2019-01-21T22:05:22.334Z,-3.21
2019-01-21T22:09:29.610Z,-3.32
2019-01-21T22:13:37.023Z,-3.28
2019-01-21T22:17:45.791Z,-3.28
2019-01-21T22:21:54.103Z,-3.38
2019-01-21T22:26:02.388Z,-3.27
2019-01-21T22:30:16.425Z,-3.20
2019-01-21T22:34:23.862Z,-3.31
2019-01-21T22:38:31.476Z,-3.29
2019-01-21T22:42:41.335Z,-3.52
2019-01-21T22:46:49.033Z,-3.58
2019-01-21T22:50:56.078Z,-3.85
2019-01-21T22:55:03.322Z,-3.85
2019-01-21T22:59:10.777Z,-4.06
2019-01-21T23:03:19.073Z,-3.98
2019-01-21T23:07:26.718Z,-3.86
2019-01-21T23:11:35.327Z,-4.06
2019-01-21T23:15:42.863Z,-4.39
2019-01-21T23:19:50.508Z,-4.29
2019-01-21T23:23:58.175Z,-4.61
2019-01-21T23:28:06.769Z,-4.42
2019-01-21T23:32:14.201Z,-4.26
2019-01-21T23:36:21.477Z,-4.43
2019-01-21T23:40:28.691Z,-4.43
2019-01-21T23:44:36.964Z,-4.62
2019-01-21T23:48:44.133Z,-4.60
2019-01-21T23:52:55.951Z,-4.61
2019-01-21T23:57:03.295Z,-4.48
